»·PEaware :: EJA827 KBOI-KPDX

EJA827 :: KBOI-KPDX

FLIGHT INFORMATION

Flight Status: Arrived
Operator:
Netjets Aviation
More flights by this operator :: More flights under this callsign
Pilot: Anonymous 31865 (31865)
Aircraft: GULFSTREAM G-1159C GULFSTREAM 4
(GLF4)
More flights by this aircraft type
Origin: KBOI Boise Air Terminal/Gowen
United States
Destination: KPDX Portland Intl
United States
More flights between these airports :: More routes between these airports
Route: +BOI3 SAILL BUEEL IMB RABBI HHOOD4
File this flight plan on PilotEdge
Remarks:
Altitude:
(Current/Filed)
38,000ft
Speed:
(Current/Filed)
475kts
Departed: 05-Nov-20 11:37 AM
Arrived: 05-Nov-20 12:44 PM
Distance/Time
Traveled:
297nm/1:07
Distance/Time
To Go:
Arrived

Flight Plot

Page will automatically refresh every two minutes.

Flight plan parsing failed; only flown route is shown


Map Options




Map Legend


Flown Route
Filed Route
Departure Airport
Arrival Airport
Navaid (VOR, NDB)
Fix

Horizontal Profiles

Position Reports

Time Latitude Longitude Heading Altitude Ground
Speed
05-Nov-20 11:22 43.568937 -116.227583 183 2879ft 0kts
05-Nov-20 11:23 43.568937 -116.227583 183 2879ft 0kts
05-Nov-20 11:24 43.568937 -116.227583 183 2879ft 0kts
05-Nov-20 11:25 43.568937 -116.227583 183 2879ft 0kts
05-Nov-20 11:26 43.568937 -116.227583 183 2879ft 0kts
05-Nov-20 11:27 43.568937 -116.227583 183 2879ft 0kts
05-Nov-20 11:28 43.568937 -116.227583 183 2879ft 0kts
05-Nov-20 11:29 43.568937 -116.227583 183 2879ft 0kts
05-Nov-20 11:30 43.568937 -116.227583 183 2879ft 0kts
05-Nov-20 11:31 43.568917 -116.227589 192 2879ft 1kts
05-Nov-20 11:32 43.568983 -116.229806 296 2879ft 12kts
05-Nov-20 11:33 43.570468 -116.234124 295 2879ft 10kts
05-Nov-20 11:34 43.570971 -116.236048 250 2879ft 0kts
05-Nov-20 11:35 43.570004 -116.236293 127 2879ft 8kts
05-Nov-20 11:36 43.557311 -116.197028 111 3668ft 199kts
05-Nov-20 11:37 43.537145 -116.124541 113 5682ft 208kts
05-Nov-20 11:38 43.515455 -116.046716 114 7697ft 255kts
05-Nov-20 11:39 43.528011 -115.950719 22 9743ft 309kts
05-Nov-20 11:41 43.586546 -116.002580 278 11902ft 285kts
05-Nov-20 11:42 43.602788 -116.127094 277 14574ft 349kts
05-Nov-20 11:43 43.619869 -116.261239 277 16049ft 354kts
05-Nov-20 11:44 43.636897 -116.396229 277 18707ft 365kts
05-Nov-20 11:45 43.654294 -116.535567 276 21695ft 375kts
05-Nov-20 11:46 43.672095 -116.679717 276 23229ft 382kts
05-Nov-20 11:47 43.689671 -116.823418 275 25331ft 385kts
05-Nov-20 11:48 43.707704 -116.972331 275 29362ft 392kts
05-Nov-20 11:49 43.727959 -117.115369 286 33365ft 382kts
05-Nov-20 11:50 43.769130 -117.248326 286 37354ft 374kts
05-Nov-20 11:51 43.812799 -117.387602 287 38259ft 408kts
05-Nov-20 11:52 43.857407 -117.530512 287 38258ft 402kts
05-Nov-20 11:53 43.906114 -117.670405 289 38273ft 407kts
05-Nov-20 11:54 43.958124 -117.809299 290 38269ft 406kts
05-Nov-20 11:55 44.010168 -117.948255 290 38236ft 407kts
05-Nov-20 11:56 44.062344 -118.088249 290 38188ft 408kts
05-Nov-20 11:56 44.105705 -118.205139 290 38191ft 409kts
05-Nov-20 11:58 44.166485 -118.369795 290 38176ft 411kts
05-Nov-20 11:58 44.209867 -118.487941 290 38173ft 412kts
05-Nov-20 12:00 44.270576 -118.654115 289 38173ft 411kts
05-Nov-20 12:00 44.313547 -118.772356 289 38184ft 411kts
05-Nov-20 12:01 44.364743 -118.913837 289 38182ft 406kts
05-Nov-20 12:02 44.415131 -119.053858 289 38180ft 400kts
05-Nov-20 12:03 44.464855 -119.192778 289 38179ft 400kts
05-Nov-20 12:04 44.514562 -119.332318 289 38177ft 400kts
05-Nov-20 12:05 44.564039 -119.471933 289 38175ft 400kts
05-Nov-20 12:06 44.613188 -119.611326 289 38173ft 400kts
05-Nov-20 12:07 44.667274 -119.748440 294 38199ft 406kts
05-Nov-20 12:08 44.731778 -119.879878 296 38185ft 408kts
05-Nov-20 12:09 44.795712 -120.009522 295 38037ft 395kts
05-Nov-20 12:10 44.857887 -120.136250 295 35793ft 393kts
05-Nov-20 12:11 44.919582 -120.262556 295 33295ft 393kts
05-Nov-20 12:12 44.981957 -120.390731 296 30779ft 393kts
05-Nov-20 12:13 45.041903 -120.514495 296 28317ft 377kts
05-Nov-20 12:14 45.100315 -120.635601 295 26088ft 367kts
05-Nov-20 12:15 45.156620 -120.752861 295 23872ft 354kts
05-Nov-20 12:16 45.210929 -120.866414 295 21683ft 343kts
05-Nov-20 12:17 45.263547 -120.976859 295 19672ft 335kts
05-Nov-20 12:18 45.315138 -121.085590 295 17984ft 333kts
05-Nov-20 12:19 45.366884 -121.195073 296 16505ft 334kts
05-Nov-20 12:20 45.418383 -121.304375 297 15488ft 330kts
05-Nov-20 12:21 45.468214 -121.411769 288 14453ft 307kts
05-Nov-20 12:22 45.492406 -121.526449 281 13452ft 302kts
05-Nov-20 12:23 45.514900 -121.640547 281 12430ft 293kts
05-Nov-20 12:24 45.530593 -121.747304 269 11423ft 270kts
05-Nov-20 12:25 45.534520 -121.853800 268 10430ft 267kts
05-Nov-20 12:26 45.539130 -121.959516 283 9523ft 270kts
05-Nov-20 12:27 45.560173 -122.062564 282 9002ft 270kts
05-Nov-20 12:28 45.581732 -122.165999 282 8989ft 270kts
05-Nov-20 12:29 45.603045 -122.268804 282 8989ft 270kts
05-Nov-20 12:30 45.624595 -122.373419 282 8135ft 287kts
05-Nov-20 12:31 45.647342 -122.474686 297 7298ft 234kts
05-Nov-20 12:32 45.674293 -122.550146 297 6273ft 209kts
05-Nov-20 12:33 45.700870 -122.623976 296 5045ft 206kts
05-Nov-20 12:34 45.726358 -122.695971 296 4211ft 199kts
05-Nov-20 12:35 45.750360 -122.769257 296 3978ft 210kts
05-Nov-20 12:36 45.764561 -122.846887 232 3827ft 213kts
05-Nov-20 12:37 45.715327 -122.859265 145 2990ft 191kts
05-Nov-20 12:38 45.676708 -122.806904 117 2983ft 198kts
05-Nov-20 12:39 45.650871 -122.739947 118 2315ft 180kts
05-Nov-20 12:40 45.627533 -122.680392 120 1456ft 150kts
05-Nov-20 12:41 45.607978 -122.629752 119 619ft 141kts
05-Nov-20 12:42 45.590615 -122.584938 118 31ft 77kts
05-Nov-20 12:43 45.586358 -122.576329 210 31ft 7kts
05-Nov-20 12:44 45.585131 -122.577837 246 31ft 0kts
05-Nov-20 12:45 45.585131 -122.577837 246 31ft 0kts

Navigation Log

Ident Type
Flight plan parsing failed, navigation log unavailable